Time;durP1;ratioP1;P1;durP2;ratioP2;P2;SDS_P1;SDS_P2;PMS_P1;PMS_P2;Temp;Humidity;BMP_temperature;BMP_pressure;BME280_temperature;BME280_humidity;BME280_pressure;Samples;Min_cycle;Max_cycle;Signal;HPM_P1;HPM_P2
2022/01/12 00:04:21;;;;;;;27.07;11.18;;;;;;;-1.33;100.00;100942.66;4244166;82;43291;-81
2022/01/12 00:10:22;;;;;;;28.55;11.25;;;;;;;-1.28;100.00;100936.59;4246387;82;43365;-82
2022/01/12 00:16:23;;;;;;;27.50;11.33;;;;;;;-1.17;100.00;100938.47;4242864;83;43373;-81
2022/01/12 00:22:26;;;;;;;28.12;10.53;;;;;;;-1.10;100.00;100941.52;4224686;82;43390;-82
2022/01/12 00:34:57;;;;;;;27.60;11.30;;;;;;;-1.42;100.00;100946.78;4230624;82;43416;-81
2022/01/12 00:40:59;;;;;;;27.52;11.25;;;;;;;-1.13;100.00;100952.67;4245734;82;43389;-80
2022/01/12 00:47:00;;;;;;;26.80;11.48;;;;;;;-1.46;100.00;100951.89;4252561;82;43253;-81
2022/01/12 00:53:03;;;;;;;27.60;10.68;;;;;;;-1.51;100.00;100954.87;4248771;82;43441;-80
2022/01/12 00:59:05;;;;;;;28.90;11.20;;;;;;;-1.29;100.00;100950.75;4238327;82;43378;-81
2022/01/12 01:05:07;;;;;;;27.60;10.95;;;;;;;-1.70;100.00;100946.03;4225804;83;43385;-82
2022/01/12 01:11:09;;;;;;;26.02;10.95;;;;;;;-1.64;100.00;100944.77;4238396;82;43021;-81
2022/01/12 01:29:38;;;;;;;28.65;11.48;;;;;;;-1.52;100.00;100951.01;4316904;81;43514;-81
2022/01/12 01:35:44;;;;;;;26.97;11.10;;;;;;;-1.47;100.00;100955.48;4297434;82;43294;-81
2022/01/12 01:41:53;;;;;;;29.37;12.68;;;;;;;-1.41;100.00;100959.02;4251658;83;43447;-82
2022/01/12 01:54:19;;;;;;;31.35;12.63;;;;;;;-1.31;100.00;100949.98;4297093;81;43720;-81
2022/01/12 02:00:24;;;;;;;38.95;13.83;;;;;;;-1.33;100.00;100954.07;4307280;81;44455;-81
2022/01/12 02:06:26;;;;;;;41.97;14.87;;;;;;;-1.07;100.00;100932.91;4303839;81;28455;-81
2022/01/12 02:12:31;;;;;;;39.53;13.90;;;;;;;-1.16;100.00;100941.47;4320138;81;28496;-83
2022/01/12 02:50:38;;;;;;;35.48;14.35;;;;;;;-0.99;100.00;100937.64;4278485;82;44102;-77
2022/01/12 02:56:03;;;;;;;32.23;12.45;;;;;;;-1.14;100.00;100947.52;4282996;83;43408;-76
2022/01/12 03:02:20;;;;;;;29.27;10.95;;;;;;;-1.46;100.00;100938.23;4282824;83;43848;-77
2022/01/12 03:08:13;;;;;;;23.90;9.63;;;;;;;-1.50;100.00;100943.83;4279561;83;43905;-77
2022/01/12 03:14:11;;;;;;;26.05;9.25;;;;;;;-2.29;100.00;100944.16;4281481;83;41523;-77
2022/01/12 03:20:13;;;;;;;24.12;10.23;;;;;;;-2.33;100.00;100945.78;4281638;83;43976;-76
2022/01/12 03:26:14;;;;;;;20.70;8.28;;;;;;;-1.58;100.00;100938.59;4282888;83;43890;-76
2022/01/12 03:32:20;;;;;;;21.52;8.95;;;;;;;-1.24;100.00;100943.34;4281665;83;43897;-77
2022/01/12 04:08:40;;;;;;;18.20;7.47;;;;;;;-1.41;100.00;100926.91;4258097;83;43960;-76
2022/01/12 04:14:41;;;;;;;16.00;7.55;;;;;;;-1.39;100.00;100927.27;4280851;83;43972;-77
2022/01/12 04:20:50;;;;;;;22.50;7.72;;;;;;;-1.24;100.00;100934.59;4260190;84;43921;-78
2022/01/12 04:26:48;;;;;;;18.07;7.37;;;;;;;-1.26;100.00;100936.01;4260345;83;43882;-77
2022/01/12 04:32:49;;;;;;;18.90;7.42;;;;;;;-1.16;100.00;100936.20;4261032;83;44095;-78
2022/01/12 04:38:51;;;;;;;20.80;7.20;;;;;;;-1.68;100.00;100944.12;4260119;84;43916;-77
2022/01/12 04:45:00;;;;;;;16.62;6.28;;;;;;;-1.40;100.00;100944.88;4260664;83;43890;-77
2022/01/12 04:50:58;;;;;;;16.55;6.40;;;;;;;-1.31;100.00;100952.63;4223854;84;43902;-77
2022/01/12 04:56:59;;;;;;;13.75;5.85;;;;;;;-1.81;100.00;100953.36;4240348;84;43947;-77
2022/01/12 05:15:37;;;;;;;15.47;6.30;;;;;;;-1.74;100.00;100969.61;4232278;81;28516;-76
2022/01/12 05:21:39;;;;;;;16.35;5.67;;;;;;;-1.91;100.00;100967.62;4302988;81;43920;-77
2022/01/12 05:27:41;;;;;;;10.80;4.92;;;;;;;-1.89;100.00;100964.89;4289682;83;43234;-76
2022/01/12 05:33:47;;;;;;;12.98;5.10;;;;;;;-2.15;100.00;100983.26;4290579;83;43231;-77
2022/01/12 05:39:46;;;;;;;11.60;4.75;;;;;;;-2.12;100.00;100978.63;4290593;83;43221;-77
2022/01/12 05:45:48;;;;;;;11.55;4.62;;;;;;;-2.12;100.00;100984.39;4290853;83;43195;-76
2022/01/12 05:51:51;;;;;;;12.82;5.17;;;;;;;-2.42;100.00;100986.75;4289011;83;43247;-79
2022/01/12 05:57:52;;;;;;;9.00;4.53;;;;;;;-2.21;100.00;100986.31;4289950;82;42718;-77
2022/01/12 06:03:54;;;;;;;11.50;5.03;;;;;;;-1.81;100.00;100994.23;4290251;83;43191;-77
2022/01/12 06:09:56;;;;;;;13.48;5.22;;;;;;;-2.17;100.00;101004.47;4289327;83;43247;-76
2022/01/12 06:15:58;;;;;;;12.15;5.42;;;;;;;-2.37;100.00;101003.09;4285728;82;43252;-75
2022/01/12 06:22:00;;;;;;;16.30;6.70;;;;;;;-2.07;100.00;101013.92;4264974;81;43948;-77
2022/01/12 06:34:25;;;;;;;17.45;7.70;;;;;;;-2.48;100.00;101018.29;4186877;84;43927;-74
2022/01/12 06:40:28;;;;;;;14.70;6.10;;;;;;;-2.00;100.00;101023.59;4211864;84;43988;-77
2022/01/12 06:46:31;;;;;;;13.03;6.20;;;;;;;-2.64;100.00;101023.68;4146176;86;43558;-80
2022/01/12 06:52:33;;;;;;;17.40;6.33;;;;;;;-2.56;100.00;101024.02;4184341;85;43909;-78
2022/01/12 06:58:35;;;;;;;17.80;6.75;;;;;;;-2.28;100.00;101040.72;4272014;82;43952;-77
2022/01/12 07:04:38;;;;;;;16.52;6.75;;;;;;;-2.25;100.00;101045.78;4269332;83;43921;-78
2022/01/12 07:10:42;;;;;;;13.13;6.28;;;;;;;-2.87;100.00;101067.22;4204523;83;43950;-78
2022/01/12 07:16:45;;;;;;;12.43;5.30;;;;;;;-2.61;100.00;101056.86;4206504;83;33666;-77
2022/01/12 07:22:47;;;;;;;16.82;6.05;;;;;;;-2.20;100.00;101059.98;4255434;84;43941;-76
2022/01/12 07:28:49;;;;;;;15.28;6.70;;;;;;;-2.40;100.00;101078.39;4244831;84;43925;-76
2022/01/12 07:34:50;;;;;;;18.45;7.00;;;;;;;-2.25;100.00;101068.19;4244614;82;43926;-76
2022/01/12 07:40:51;;;;;;;15.72;6.50;;;;;;;-1.49;100.00;101058.50;4224519;82;43964;-81
2022/01/12 07:46:53;;;;;;;19.48;8.65;;;;;;;-1.37;100.00;101066.55;4224101;83;43929;-76
2022/01/12 07:52:54;;;;;;;19.02;7.87;;;;;;;-1.56;100.00;101082.28;4243733;82;43950;-75
2022/01/12 07:58:55;;;;;;;17.57;7.85;;;;;;;-1.45;100.00;101085.05;4144247;84;44069;-75
2022/01/12 08:04:57;;;;;;;18.25;7.65;;;;;;;-1.72;100.00;101083.30;4245717;82;43920;-78
2022/01/12 08:10:58;;;;;;;20.52;7.83;;;;;;;-1.51;100.00;101081.52;4156456;84;43922;-75
2022/01/12 08:17:00;;;;;;;20.20;7.95;;;;;;;-1.84;100.00;101080.13;4185629;84;43966;-75
2022/01/12 08:23:02;;;;;;;19.67;7.58;;;;;;;-1.43;100.00;101082.31;4272718;83;43893;-75
2022/01/12 08:29:03;;;;;;;18.30;7.53;;;;;;;-1.62;100.00;101086.17;4228128;83;43934;-76
2022/01/12 08:35:06;;;;;;;17.62;7.60;;;;;;;-1.60;100.00;101088.22;4198438;84;43958;-74
2022/01/12 08:41:07;;;;;;;20.68;7.75;;;;;;;-2.07;100.00;101094.32;4214602;83;43907;-75
2022/01/12 08:47:09;;;;;;;17.62;6.90;;;;;;;-1.92;100.00;101099.09;4217529;83;43910;-76
2022/01/12 08:53:10;;;;;;;19.85;7.62;;;;;;;-2.08;100.00;101110.22;4229571;83;44079;-79
2022/01/12 08:59:13;;;;;;;17.62;7.83;;;;;;;-2.36;100.00;101109.34;4227714;83;43910;-81
2022/01/12 09:05:15;;;;;;;17.85;7.70;;;;;;;-1.80;100.00;101115.91;4220144;83;44120;-77
2022/01/12 09:11:18;;;;;;;14.55;6.60;;;;;;;-1.59;100.00;101128.16;4238081;83;43940;-77
2022/01/12 09:17:23;;;;;;;21.23;8.65;;;;;;;-1.46;100.00;101117.66;4199026;83;43964;-77
2022/01/12 09:23:24;;;;;;;19.10;8.00;;;;;;;-1.27;100.00;101105.39;4130877;84;28531;-79
2022/01/12 09:29:25;;;;;;;17.37;7.58;;;;;;;-1.34;100.00;101115.15;4151741;84;43913;-76
2022/01/12 09:35:28;;;;;;;20.92;8.70;;;;;;;-1.52;100.00;101107.50;4140530;84;43907;-76
2022/01/12 09:41:29;;;;;;;20.12;8.18;;;;;;;-1.18;99.54;101096.48;4162760;84;43905;-77
2022/01/12 09:47:30;;;;;;;18.17;7.87;;;;;;;-1.28;98.08;101092.32;4138892;86;43968;-77
2022/01/12 09:53:35;;;;;;;17.50;8.00;;;;;;;-1.21;98.62;101089.61;4155177;84;43941;-77
2022/01/12 09:59:36;;;;;;;20.08;8.15;;;;;;;-1.15;96.18;101087.89;4156956;84;43916;-79
2022/01/12 10:05:38;;;;;;;18.75;8.00;;;;;;;-1.55;98.47;101061.08;4102111;85;43972;-78
2022/01/12 10:11:57;;;;;;;19.90;8.20;;;;;;;-1.01;94.09;101044.70;4177800;84;43908;-77
2022/01/12 10:18:03;;;;;;;18.27;7.70;;;;;;;-0.83;90.68;101047.03;4172061;83;43942;-80
2022/01/12 10:24:10;;;;;;;18.47;7.83;;;;;;;-1.37;94.75;101053.34;4189167;83;36809;-77
2022/01/12 10:30:28;;;;;;;17.98;7.67;;;;;;;-1.07;90.39;101045.12;4193407;84;43946;-76
2022/01/12 10:36:40;;;;;;;17.95;7.08;;;;;;;-1.15;87.96;101054.89;4165388;85;43927;-77
2022/01/12 10:42:44;;;;;;;16.67;7.20;;;;;;;-0.85;85.98;101054.20;4218969;83;43969;-79
2022/01/12 10:48:49;;;;;;;17.35;7.78;;;;;;;-1.35;92.58;101071.23;4170282;84;43896;-82
2022/01/12 10:54:54;;;;;;;18.02;8.03;;;;;;;-1.61;97.13;101058.01;4234016;83;28455;-80
2022/01/12 11:00:56;;;;;;;18.48;7.97;;;;;;;-1.31;95.17;101043.67;4191599;84;28540;-78
2022/01/12 11:06:59;;;;;;;19.70;8.30;;;;;;;-0.95;95.52;101032.88;4187663;84;43932;-80
2022/01/12 11:13:01;;;;;;;17.80;7.25;;;;;;;-1.27;94.94;101042.54;4185870;83;44060;-77
2022/01/12 11:19:06;;;;;;;17.23;7.30;;;;;;;-1.42;93.03;101029.91;4194404;83;43939;-77
2022/01/12 11:25:36;;;;;;;18.83;8.20;;;;;;;-1.26;91.35;101042.41;4211057;82;28534;-80
2022/01/12 11:31:40;;;;;;;17.10;7.03;;;;;;;-1.24;90.97;101048.92;4193055;82;43907;-78
2022/01/12 11:37:50;;;;;;;20.45;8.53;;;;;;;-1.38;94.25;101018.18;4241040;82;43988;-82
2022/01/12 11:44:09;;;;;;;19.92;8.88;;;;;;;-1.22;91.39;101033.81;4288212;82;43901;-78
2022/01/12 11:50:11;;;;;;;17.70;8.25;;;;;;;-1.34;94.27;101022.78;4265929;82;43949;-80
2022/01/12 11:56:21;;;;;;;19.57;8.43;;;;;;;-1.10;92.58;101008.38;4260338;83;43905;-78
2022/01/12 12:02:45;;;;;;;19.37;8.88;;;;;;;-1.63;100.00;101008.44;4256019;82;44365;-80
2022/01/12 12:08:59;;;;;;;23.83;9.25;;;;;;;-1.17;95.28;101010.60;4272143;83;43922;-83
2022/01/12 12:15:05;;;;;;;24.10;9.55;;;;;;;-1.01;93.74;100989.26;4249775;83;28554;-82
2022/01/12 12:21:07;;;;;;;22.05;9.13;;;;;;;-1.03;92.00;101003.51;4267013;83;43953;-82
2022/01/12 12:27:11;;;;;;;21.55;8.98;;;;;;;-1.14;91.10;101020.11;4252674;83;43891;-84
2022/01/12 12:33:15;;;;;;;21.87;9.17;;;;;;;-1.18;89.57;101033.13;4188889;85;28531;-82
2022/01/12 12:39:16;;;;;;;21.12;8.58;;;;;;;-1.10;88.61;101026.86;4186490;85;43915;-81
2022/01/12 12:45:17;;;;;;;20.75;9.23;;;;;;;-1.25;86.58;101031.39;4187719;85;43918;-81
2022/01/12 12:51:19;;;;;;;21.50;9.50;;;;;;;-1.16;90.15;101026.81;4253049;82;43900;-78
2022/01/12 12:57:21;;;;;;;21.80;9.33;;;;;;;-1.07;90.44;101025.31;4283546;82;43968;-78
2022/01/12 13:03:23;;;;;;;22.20;9.75;;;;;;;-0.88;88.26;101022.27;4241304;82;43897;-77
2022/01/12 13:09:25;;;;;;;25.02;8.80;;;;;;;-0.81;86.40;101021.81;4265308;82;43914;-77
2022/01/12 13:15:40;;;;;;;25.25;9.70;;;;;;;-1.06;88.46;101004.56;4249954;82;42387;-77
2022/01/12 13:21:42;;;;;;;24.90;10.03;;;;;;;-0.90;86.44;101010.94;4249701;82;43704;-78
2022/01/12 13:27:47;;;;;;;24.60;10.08;;;;;;;-0.81;89.15;100997.58;4273577;83;44417;-76
2022/01/12 13:33:53;;;;;;;22.52;10.03;;;;;;;-0.79;88.11;100981.14;4260859;82;28559;-78
2022/01/12 13:40:08;;;;;;;23.83;10.45;;;;;;;-0.63;84.90;100983.98;4263120;82;28463;-78
2022/01/12 13:46:16;;;;;;;23.60;9.98;;;;;;;-0.68;87.22;100996.20;4265292;83;44460;-79
2022/01/12 13:52:18;;;;;;;24.65;9.63;;;;;;;-0.76;87.18;100982.23;4264601;82;43112;-77
2022/01/12 13:58:27;;;;;;;23.57;9.90;;;;;;;-0.49;87.43;100980.36;4259446;82;44185;-76
2022/01/12 14:04:38;;;;;;;20.32;9.30;;;;;;;-0.77;87.95;100977.08;4241799;82;43921;-77
2022/01/12 14:10:45;;;;;;;23.00;9.98;;;;;;;-0.78;90.02;100966.12;4261631;82;44450;-77
2022/01/12 14:16:47;;;;;;;27.32;11.10;;;;;;;-0.74;89.04;100984.28;4260174;82;43473;-76
2022/01/12 14:23:01;;;;;;;24.57;11.10;;;;;;;-0.86;91.15;100999.22;4264442;82;43386;-80
2022/01/12 14:29:02;;;;;;;22.45;10.65;;;;;;;-1.08;95.51;101003.83;4296735;82;44420;-75
2022/01/12 14:35:08;;;;;;;23.90;11.48;;;;;;;-1.17;98.96;101009.74;4297470;81;43004;-76
2022/01/12 14:41:09;;;;;;;;;;;;;;;-0.94;97.16;101002.02;4283190;83;28568;-75
2022/01/12 14:47:10;;;;;;;26.42;10.78;;;;;;;-1.07;99.17;101010.80;4268526;83;43404;-76
2022/01/12 14:53:12;;;;;;;21.40;9.75;;;;;;;-0.90;95.73;101002.19;4267907;83;43920;-75
2022/01/12 14:59:13;;;;;;;25.20;11.25;;;;;;;-1.04;95.99;100993.44;4275647;81;43696;-77
2022/01/12 15:05:14;;;;;;;27.32;10.85;;;;;;;-1.17;95.44;100997.41;4267151;82;43342;-74
2022/01/12 15:11:16;;;;;;;25.50;10.95;;;;;;;-1.13;97.33;100986.98;4261343;82;42911;-74
2022/01/12 15:17:17;;;;;;;28.65;11.93;;;;;;;-1.21;96.37;100984.03;4261792;82;43436;-73
2022/01/12 15:23:19;;;;;;;27.30;11.03;;;;;;;-1.37;96.58;100980.78;4164759;83;43324;-72
2022/01/12 15:29:22;;;;;;;27.17;12.05;;;;;;;-1.45;98.44;100983.95;4285180;81;43478;-74
2022/01/12 15:35:23;;;;;;;26.65;11.35;;;;;;;-1.36;99.33;100978.50;4277763;81;43427;-72
2022/01/12 15:41:24;;;;;;;28.85;12.45;;;;;;;-1.48;100.00;100981.50;4285230;81;43420;-77
2022/01/12 15:47:28;;;;;;;30.55;12.68;;;;;;;-1.45;100.00;100978.67;4288631;81;43372;-75
2022/01/12 15:53:29;;;;;;;28.92;12.15;;;;;;;-1.62;100.00;100996.48;4283607;81;43459;-73
2022/01/12 15:59:30;;;;;;;33.05;13.38;;;;;;;-1.47;100.00;101006.47;4281589;81;44102;-74
2022/01/12 16:05:33;;;;;;;30.80;12.93;;;;;;;-1.66;100.00;101008.20;4275464;81;43425;-76
2022/01/12 16:11:37;;;;;;;32.20;14.03;;;;;;;-1.75;100.00;101003.53;4279097;81;44134;-77
2022/01/12 16:17:44;;;;;;;34.48;14.18;;;;;;;-1.80;100.00;101002.52;4269635;81;44070;-74
2022/01/12 16:23:41;;;;;;;35.00;13.58;;;;;;;-1.95;100.00;101005.70;4225794;82;44130;-75
2022/01/12 16:29:43;;;;;;;29.67;14.35;;;;;;;-2.04;100.00;100998.39;4168638;83;43454;-74
2022/01/12 16:35:45;;;;;;;35.28;13.38;;;;;;;-2.12;100.00;101000.21;4161841;83;44065;-75
2022/01/12 16:41:46;;;;;;;38.95;14.50;;;;;;;-2.25;100.00;100979.08;4170888;83;44451;-75
2022/01/12 16:47:48;;;;;;;33.00;13.75;;;;;;;-2.38;100.00;100986.92;4172545;83;44105;-75
2022/01/12 16:53:49;;;;;;;39.78;15.40;;;;;;;-2.35;100.00;100991.98;4169162;83;44455;-76
2022/01/12 16:59:50;;;;;;;39.25;16.15;;;;;;;-2.32;100.00;100983.90;4168283;83;44455;-76
2022/01/12 17:05:52;;;;;;;41.75;17.42;;;;;;;-2.53;100.00;100983.48;4163552;83;44456;-78
2022/01/12 17:11:53;;;;;;;38.13;17.52;;;;;;;-2.57;100.00;100973.60;4175718;83;44448;-77
2022/01/12 17:18:21;;;;;;;41.18;16.73;;;;;;;-2.69;100.00;100975.25;4170758;83;44439;-78
2022/01/12 17:24:27;;;;;;;46.55;17.85;;;;;;;-2.73;100.00;100973.73;4163907;83;43801;-76
2022/01/12 17:30:29;;;;;;;44.15;19.25;;;;;;;-2.85;100.00;100975.83;4168722;84;43816;-75
2022/01/12 17:36:41;;;;;;;41.50;18.23;;;;;;;-2.83;100.00;100969.53;4165770;83;42902;-89
2022/01/12 17:42:42;;;;;;;46.37;18.42;;;;;;;-2.77;100.00;100985.41;4169033;84;43777;-78
2022/01/12 17:48:44;;;;;;;51.15;19.60;;;;;;;-2.91;100.00;100983.63;4165708;83;43691;-80
2022/01/12 17:54:46;;;;;;;47.27;18.23;;;;;;;-2.76;100.00;100978.34;4165004;83;43860;-78
2022/01/12 18:00:47;;;;;;;50.65;19.27;;;;;;;-2.89;100.00;100983.55;4158305;83;43883;-77
2022/01/12 18:06:50;;;;;;;44.73;19.60;;;;;;;-2.85;100.00;100979.31;4184987;83;43770;-85
2022/01/12 18:12:51;;;;;;;52.67;20.40;;;;;;;-2.78;100.00;100976.28;4192696;83;43994;-84
2022/01/12 18:18:55;;;;;;;51.63;20.10;;;;;;;-2.84;100.00;100970.48;4180341;83;43584;-81
2022/01/12 18:24:57;;;;;;;50.58;20.80;;;;;;;-2.79;100.00;100974.14;4200485;83;44490;-84
2022/01/12 18:31:00;;;;;;;48.45;20.88;;;;;;;-2.80;100.00;100971.95;4196407;83;44153;-87
2022/01/12 18:37:03;;;;;;;52.88;21.50;;;;;;;-2.73;100.00;100976.36;4210547;83;44096;-87
2022/01/12 18:43:05;;;;;;;58.83;22.45;;;;;;;-2.50;100.00;100981.95;4257793;82;44166;-83
2022/01/12 18:49:07;;;;;;;55.43;21.93;;;;;;;-2.37;100.00;100983.34;4208081;83;44124;-75
2022/01/12 18:55:12;;;;;;;54.85;23.10;;;;;;;-2.46;100.00;100980.83;4248884;82;44122;-77
2022/01/12 19:01:15;;;;;;;54.35;22.42;;;;;;;-2.29;100.00;100966.56;4253304;82;44142;-76
2022/01/12 19:07:17;;;;;;;56.08;20.43;;;;;;;-2.23;100.00;100967.95;4255939;82;44102;-76
2022/01/12 19:13:20;;;;;;;50.33;19.90;;;;;;;-2.12;100.00;100972.05;4255891;82;43893;-78
2022/01/12 19:19:21;;;;;;;59.03;22.13;;;;;;;-1.96;100.00;100975.83;4261827;81;44217;-77
2022/01/12 19:25:23;;;;;;;45.35;19.07;;;;;;;-1.69;100.00;100964.39;4275363;81;43775;-79
2022/01/12 19:31:25;;;;;;;51.50;20.80;;;;;;;-2.00;100.00;100970.41;4271677;81;44935;-74
2022/01/12 19:37:27;;;;;;;48.35;18.70;;;;;;;-1.82;100.00;100974.09;4232483;83;43803;-84
2022/01/12 19:43:29;;;;;;;48.80;19.15;;;;;;;-1.76;100.00;100973.66;4257247;82;43760;-87
2022/01/12 19:49:31;;;;;;;46.37;18.12;;;;;;;-1.62;100.00;100984.61;4252468;82;43799;-83
2022/01/12 19:55:56;;;;;;;52.25;19.75;;;;;;;-1.62;100.00;100981.11;4296987;81;43814;-83
2022/01/12 20:01:56;;;;;;;42.80;18.20;;;;;;;-1.55;100.00;100987.21;4290028;81;43203;-82
2022/01/12 20:07:57;;;;;;;50.43;20.57;;;;;;;-1.41;100.00;100978.36;4301218;82;43995;-88
2022/01/12 20:13:59;;;;;;;50.85;20.27;;;;;;;-1.35;100.00;100970.49;4323020;81;44421;-86
2022/01/12 20:26:41;;;;;;;53.83;21.27;;;;;;;-1.31;100.00;100972.42;4260268;82;44110;-77
2022/01/12 20:32:42;;;;;;;57.58;23.27;;;;;;;-1.43;100.00;100965.72;4260798;82;44146;-84
2022/01/12 20:38:44;;;;;;;59.60;23.60;;;;;;;-1.12;100.00;100974.16;4214491;83;44130;-86
2022/01/12 20:44:47;;;;;;;63.17;25.05;;;;;;;-1.33;100.00;100971.69;4217051;83;43804;-76
2022/01/12 20:50:48;;;;;;;61.95;24.80;;;;;;;-1.22;100.00;100985.48;4217397;83;42883;-79
2022/01/12 20:56:50;;;;;;;57.80;23.52;;;;;;;-1.33;100.00;100984.42;4220689;83;44139;-79
2022/01/12 21:02:52;;;;;;;56.23;21.73;;;;;;;-1.15;100.00;100984.94;4220792;83;44135;-79
2022/01/12 21:08:56;;;;;;;53.13;22.27;;;;;;;-1.05;100.00;100985.13;4222862;83;44155;-81
2022/01/12 21:14:57;;;;;;;53.23;21.20;;;;;;;-0.85;100.00;100967.03;4209814;83;44107;-81
2022/01/12 21:21:00;;;;;;;50.90;21.45;;;;;;;-1.03;100.00;100956.84;4221140;83;44135;-81
2022/01/12 21:27:03;;;;;;;52.13;20.48;;;;;;;-0.85;100.00;100962.61;4245964;83;44059;-80
2022/01/12 21:33:04;;;;;;;48.50;18.73;;;;;;;-0.99;100.00;100950.38;4238296;82;43825;-80
2022/01/12 21:39:11;;;;;;;52.73;20.08;;;;;;;-0.99;100.00;100934.54;4163788;84;44124;-81
2022/01/12 21:45:10;;;;;;;55.38;21.07;;;;;;;-0.80;100.00;100939.83;4160349;85;44148;-78
2022/01/12 21:51:14;;;;;;;55.70;21.40;;;;;;;-0.67;100.00;100942.45;4160741;85;44104;-76
2022/01/12 21:57:16;;;;;;;49.33;20.50;;;;;;;-0.88;100.00;100945.67;4162835;85;43765;-76
2022/01/12 22:03:19;;;;;;;55.52;21.68;;;;;;;-0.93;100.00;100955.70;4164083;84;44113;-78
2022/01/12 22:09:22;;;;;;;53.48;20.55;;;;;;;-0.83;100.00;100936.56;4243553;82;28569;-82
2022/01/12 22:15:25;;;;;;;53.55;20.62;;;;;;;-0.88;100.00;100938.21;4159711;84;44163;-78
2022/01/12 22:21:28;;;;;;;51.80;19.90;;;;;;;-0.86;100.00;100938.94;4203103;82;43752;-80
2022/01/12 22:27:30;;;;;;;47.65;19.05;;;;;;;-0.75;100.00;100924.98;4263134;82;43799;-81
2022/01/12 22:33:33;;;;;;;49.20;20.02;;;;;;;-0.67;100.00;100916.48;4305743;81;44134;-79
2022/01/12 22:39:36;;;;;;;42.95;16.75;;;;;;;-0.64;100.00;100915.80;4256591;82;44487;-80
2022/01/12 22:45:42;;;;;;;46.80;17.57;;;;;;;-0.50;100.00;100921.86;4253294;81;43807;-79
2022/01/12 22:51:44;;;;;;;50.38;18.82;;;;;;;-0.53;100.00;100907.06;4277806;81;43777;-80
2022/01/12 22:57:52;;;;;;;53.73;20.92;;;;;;;-0.59;100.00;100907.53;4275999;81;44136;-79
2022/01/12 23:03:49;;;;;;;55.15;22.22;;;;;;;-0.67;100.00;100901.95;4282767;82;44127;-81
2022/01/12 23:09:51;;;;;;;61.00;23.90;;;;;;;-0.61;100.00;100902.84;4280253;82;44483;-80
2022/01/12 23:15:52;;;;;;;59.42;23.92;;;;;;;-0.64;100.00;100887.19;4285450;81;44145;-81
2022/01/12 23:21:53;;;;;;;66.45;26.50;;;;;;;-0.67;100.00;100875.08;4265310;82;43234;-80
2022/01/12 23:27:55;;;;;;;71.55;25.95;;;;;;;-0.63;100.00;100874.34;4223712;83;43630;-81
2022/01/12 23:54:55;;;;;;;69.72;26.68;;;;;;;-0.67;100.00;100859.69;4304379;81;43935;-78
2022/01/12 23:58:54;;;;;;;73.65;26.77;;;;;;;-0.70;100.00;100873.95;4280959;81;43972;-78
